createdAt,value
2023-04-02T00:00:25.183Z,33306.7148
2023-04-02T00:01:33.241Z,33281.2148
2023-04-02T00:02:41.373Z,33269.9297
2023-04-02T00:03:49.429Z,33291.6445
2023-04-02T00:04:57.433Z,33311.7852
2023-04-02T00:06:05.495Z,33297.4297
2023-04-02T00:07:13.537Z,33310.0000
2023-04-02T00:08:21.556Z,33313.2852
2023-04-02T00:09:29.639Z,33353.9297
2023-04-02T00:10:37.689Z,33322.7852
2023-04-02T00:11:45.739Z,33324.3555
2023-04-02T00:12:53.809Z,33315.6445
2023-04-02T00:14:01.850Z,33308.5000
2023-04-02T00:15:09.934Z,33306.0000
2023-04-02T00:16:18.097Z,33356.7148
2023-04-02T00:17:26.135Z,33335.5703
2023-04-02T00:18:34.173Z,33305.2852
2023-04-02T00:19:42.322Z,33341.0000
2023-04-02T00:20:50.352Z,33357.0000
2023-04-02T00:21:58.478Z,33361.0703
2023-04-02T00:23:06.452Z,33317.0703
2023-04-02T00:24:14.526Z,33330.9297
2023-04-02T00:25:22.638Z,33296.5703
2023-04-02T00:26:30.598Z,33298.7148
2023-04-02T00:27:38.592Z,33283.0000
2023-04-02T00:28:46.787Z,33294.9297
2023-04-02T00:29:54.760Z,33290.8555
2023-04-02T00:31:02.957Z,33297.5000
2023-04-02T00:32:11.077Z,33290.4297
2023-04-02T00:33:19.076Z,33282.7852
2023-04-02T00:34:27.086Z,33305.7852
2023-04-02T00:35:35.361Z,33289.7148
2023-04-02T00:36:43.277Z,33281.1445
2023-04-02T00:37:51.353Z,33295.6445
2023-04-02T00:38:59.358Z,33309.5000
2023-04-02T00:40:07.519Z,33279.7148
2023-04-02T00:41:15.480Z,33245.9297
2023-04-02T00:42:23.515Z,33272.1445
2023-04-02T00:43:31.587Z,33248.9297
2023-04-02T00:44:39.591Z,33265.8555
2023-04-02T00:45:47.694Z,33252.7852
2023-04-02T00:46:55.832Z,33268.5703
2023-04-02T00:48:03.979Z,33281.9297
2023-04-02T00:49:12.028Z,33288.9297
2023-04-02T00:50:19.999Z,33257.2148
2023-04-02T00:51:28.101Z,33234.2148
2023-04-02T00:52:36.206Z,33279.1445
2023-04-02T00:53:44.280Z,33309.7852
2023-04-02T00:54:52.330Z,33286.0703
2023-04-02T00:56:00.302Z,33258.7148
2023-04-02T00:57:08.367Z,33255.2148
2023-04-02T00:58:16.415Z,33248.0000
2023-04-02T00:59:24.469Z,33246.4297
2023-04-02T01:00:32.719Z,33204.2852
2023-04-02T01:01:40.775Z,33219.1445
2023-04-02T01:02:48.867Z,33247.9297
2023-04-02T01:03:56.808Z,33232.8555
2023-04-02T01:05:04.924Z,33201.7148
2023-04-02T01:06:13.036Z,33226.1445
2023-04-02T01:07:20.997Z,33208.5703
2023-04-02T01:08:29.051Z,33208.0703
2023-04-02T01:09:37.171Z,33193.5703
2023-04-02T01:10:45.111Z,33182.3555
2023-04-02T01:11:53.209Z,33218.5703
2023-04-02T01:13:01.239Z,33234.9297
2023-04-02T01:14:09.328Z,33211.5703
2023-04-02T01:15:17.460Z,33225.9297
2023-04-02T01:16:25.875Z,33234.6445
2023-04-02T01:17:33.699Z,33228.0000
2023-04-02T01:18:41.668Z,33216.7852
2023-04-02T01:19:49.710Z,33225.0000
2023-04-02T01:20:57.795Z,33204.7852
2023-04-02T01:22:05.877Z,33187.0703
2023-04-02T01:23:13.974Z,33217.3555
2023-04-02T01:24:21.952Z,33256.2852
2023-04-02T01:25:29.962Z,33275.4297
2023-04-02T01:26:38.013Z,33283.0703
2023-04-02T01:27:46.134Z,33251.0703
2023-04-02T01:28:54.146Z,33211.5000
2023-04-02T01:30:02.401Z,33243.4297
2023-04-02T01:31:10.489Z,33246.3555
2023-04-02T01:32:18.448Z,33210.1445
2023-04-02T01:33:26.556Z,33226.4297
2023-04-02T01:34:34.680Z,33231.7148
2023-04-02T01:35:42.753Z,33220.8555
2023-04-02T01:36:50.709Z,33220.7148
2023-04-02T01:37:58.840Z,33210.7148
2023-04-02T01:39:06.875Z,33215.2148
2023-04-02T01:40:14.849Z,33174.7148
2023-04-02T01:41:22.868Z,33200.8555
2023-04-02T01:42:30.949Z,33184.2852
2023-04-02T01:43:38.990Z,33164.1445
2023-04-02T01:44:47.218Z,33202.0703
2023-04-02T01:45:55.265Z,33220.3555
2023-04-02T01:47:03.309Z,33207.8555
2023-04-02T01:48:11.358Z,33220.0703
2023-04-02T01:49:19.503Z,33205.3555
2023-04-02T01:50:27.588Z,33204.0703
2023-04-02T01:51:35.633Z,33219.9297
2023-04-02T01:52:43.596Z,33221.3555
2023-04-02T01:53:51.719Z,33227.7148
2023-04-02T01:54:59.674Z,33202.1445
2023-04-02T01:56:07.790Z,33191.5000
2023-04-02T01:57:15.833Z,33245.2148
2023-04-02T01:58:23.897Z,33222.2148
2023-04-02T01:59:32.001Z,33260.7148
2023-04-02T02:00:40.180Z,33255.0000
2023-04-02T02:01:48.209Z,33254.0703
2023-04-02T02:02:56.324Z,33244.5703
2023-04-02T02:04:04.276Z,33253.7852
2023-04-02T02:05:12.380Z,33267.5000
2023-04-02T02:06:20.390Z,33235.9297
2023-04-02T02:07:28.539Z,33241.7148
2023-04-02T02:08:36.613Z,33239.8555
2023-04-02T02:09:44.678Z,33188.1445
2023-04-02T02:10:52.687Z,33218.5000
2023-04-02T02:12:00.735Z,33207.6445
2023-04-02T02:13:08.870Z,33198.0000
2023-04-02T02:14:16.819Z,33192.7148
2023-04-02T02:15:24.800Z,33189.7852
2023-04-02T02:16:32.969Z,33180.6445
2023-04-02T02:17:41.036Z,33172.7148
2023-04-02T02:18:49.187Z,33170.7852
2023-04-02T02:19:57.204Z,33206.9297
2023-04-02T02:21:05.241Z,33225.0703
2023-04-02T02:22:13.293Z,33209.3555
2023-04-02T02:23:21.362Z,33212.7148
2023-04-02T02:24:29.496Z,33208.8555
2023-04-02T02:25:37.875Z,33227.2148
2023-04-02T02:26:45.557Z,33199.6445
2023-04-02T02:27:53.643Z,33212.6445
2023-04-02T02:29:01.629Z,33186.6445
2023-04-02T02:30:09.723Z,33246.1445
2023-04-02T02:31:17.907Z,33219.7148
2023-04-02T02:32:25.902Z,33232.2852
2023-04-02T02:33:33.947Z,33233.8555
2023-04-02T02:34:41.998Z,33231.6445
2023-04-02T02:35:50.187Z,33221.3555
2023-04-02T02:36:58.208Z,33276.7852
2023-04-02T02:38:06.220Z,33330.7148
2023-04-02T02:39:14.254Z,33333.2852
2023-04-02T02:40:22.334Z,33349.2148
2023-04-02T02:41:30.444Z,33359.0000
2023-04-02T02:42:38.556Z,33306.8555
2023-04-02T02:43:46.429Z,33302.7852
2023-04-02T02:44:54.504Z,33308.4297
2023-04-02T02:46:02.604Z,33294.5000
2023-04-02T02:47:10.676Z,33282.6445
2023-04-02T02:48:18.846Z,33306.7852
2023-04-02T02:49:26.836Z,33328.0000
2023-04-02T02:50:34.908Z,33295.1445
2023-04-02T02:51:42.973Z,33275.5000
2023-04-02T02:52:51.070Z,33232.1445
2023-04-02T02:53:59.155Z,33224.5703
2023-04-02T02:55:07.228Z,33252.3555
2023-04-02T02:56:15.210Z,33250.1445
2023-04-02T02:57:23.401Z,33277.7148
2023-04-02T02:58:31.317Z,33268.5703
2023-04-02T02:59:39.383Z,33253.0703
2023-04-02T03:00:47.468Z,33239.2148
2023-04-02T03:01:55.492Z,33261.2148
2023-04-02T03:03:03.764Z,33256.0000
2023-04-02T03:04:11.757Z,33247.6445
2023-04-02T03:05:19.833Z,33244.7852
2023-04-02T03:06:27.891Z,33244.1445
2023-04-02T03:07:35.904Z,33233.0000
2023-04-02T03:08:44.003Z,33231.5000
2023-04-02T03:09:52.017Z,33238.8555
2023-04-02T03:11:00.144Z,33237.7148
2023-04-02T03:12:08.196Z,33283.2852
2023-04-02T03:13:16.152Z,33249.5000
2023-04-02T03:14:24.196Z,33232.8555
2023-04-02T03:15:32.300Z,33231.5703
2023-04-02T03:16:40.350Z,33266.5000
2023-04-02T03:17:48.446Z,33260.1445
2023-04-02T03:18:56.555Z,33257.6445
2023-04-02T03:20:04.697Z,33254.0703
2023-04-02T03:21:12.674Z,33246.5000
2023-04-02T03:22:20.809Z,33247.4297
2023-04-02T03:23:28.860Z,33231.3555
2023-04-02T03:24:36.917Z,33234.0000
2023-04-02T03:25:44.968Z,33250.0000
2023-04-02T03:26:53.036Z,33245.2148
2023-04-02T03:28:01.198Z,33268.6445
2023-04-02T03:29:09.182Z,33229.2148
2023-04-02T03:30:17.155Z,33231.9297
2023-04-02T03:31:25.278Z,33238.7852
2023-04-02T03:32:33.379Z,33279.2148
2023-04-02T03:33:41.509Z,33253.7148
2023-04-02T03:34:49.592Z,33254.0000
2023-04-02T03:35:57.630Z,33257.0000
2023-04-02T03:37:05.739Z,33291.6445
2023-04-02T03:38:13.715Z,33278.0000
2023-04-02T03:39:21.869Z,33290.4297
2023-04-02T03:40:29.922Z,33261.7148
2023-04-02T03:41:37.934Z,33265.1445
2023-04-02T03:42:46.112Z,33294.1445
2023-04-02T03:43:53.991Z,33277.4297
2023-04-02T03:45:02.078Z,33270.5703
2023-04-02T03:46:10.163Z,33307.1445
2023-04-02T03:47:18.202Z,33282.7852
2023-04-02T03:48:26.404Z,33275.0703
2023-04-02T03:49:34.476Z,33256.9297
2023-04-02T03:50:42.500Z,33261.4297
2023-04-02T03:51:50.529Z,33238.0703
2023-04-02T03:52:58.697Z,33227.8555
2023-04-02T03:54:06.619Z,33244.7852
2023-04-02T03:55:14.730Z,33268.0703
2023-04-02T03:56:22.770Z,33271.1445
2023-04-02T03:57:31.018Z,33284.2148
2023-04-02T03:58:38.826Z,33257.5000
2023-04-02T03:59:47.347Z,33226.8555
2023-04-02T04:00:54.964Z,33257.2852
2023-04-02T04:02:03.004Z,33230.2148
2023-04-02T04:03:11.327Z,33227.0000
2023-04-02T04:04:19.317Z,33244.8555
2023-04-02T04:05:27.214Z,33205.7852
2023-04-02T04:06:35.313Z,33243.9297
2023-04-02T04:07:43.476Z,33252.6445
2023-04-02T04:08:51.514Z,33288.6445
2023-04-02T04:09:59.593Z,33281.8555
2023-04-02T04:11:07.612Z,33294.2852
2023-04-02T04:12:15.715Z,33306.6445
2023-04-02T04:13:23.717Z,33348.4297
2023-04-02T04:14:31.867Z,33366.2148
2023-04-02T04:15:39.918Z,33370.9297
2023-04-02T04:16:47.969Z,33335.2148
2023-04-02T04:17:55.941Z,33336.1445
2023-04-02T04:19:03.980Z,33334.2148
2023-04-02T04:20:12.074Z,33306.0703
2023-04-02T04:21:20.140Z,33322.7148
2023-04-02T04:22:28.213Z,33266.5703
2023-04-02T04:23:36.270Z,33293.3555
2023-04-02T04:24:44.373Z,33318.4297
2023-04-02T04:25:52.473Z,33296.7852
2023-04-02T04:27:00.549Z,33285.7852
2023-04-02T04:28:08.633Z,33281.6445
2023-04-02T04:29:16.600Z,33281.0703
2023-04-02T04:30:24.670Z,33296.0703
2023-04-02T04:31:32.809Z,33281.4297
2023-04-02T04:32:40.821Z,33292.9297
2023-04-02T04:33:48.776Z,33261.9297
2023-04-02T04:34:56.874Z,33255.5703
2023-04-02T04:36:04.925Z,33243.8555
2023-04-02T04:37:13.116Z,33248.0703
2023-04-02T04:38:21.190Z,33272.6445
2023-04-02T04:39:29.272Z,33272.1445
2023-04-02T04:40:37.234Z,33256.2852
2023-04-02T04:41:45.308Z,33288.7852
2023-04-02T04:42:53.448Z,33265.5000
2023-04-02T04:44:01.474Z,33255.7852
2023-04-02T04:45:09.509Z,33255.4297
2023-04-02T04:46:17.606Z,33267.7852
2023-04-02T04:47:25.545Z,33241.4297
2023-04-02T04:48:35.221Z,33212.3555
2023-04-02T04:49:46.576Z,33253.2656
2023-04-02T04:50:54.694Z,33245.7852
2023-04-02T04:52:02.748Z,33249.7852
2023-04-02T04:53:10.817Z,33253.3555
2023-04-02T04:54:18.897Z,33202.8555
2023-04-02T04:55:27.046Z,33218.5000
2023-04-02T04:56:34.995Z,33240.5000
2023-04-02T04:57:43.061Z,33205.5000
2023-04-02T04:58:51.100Z,33204.7148
2023-04-02T04:59:59.256Z,33205.6445
2023-04-02T05:01:07.247Z,33189.8555
2023-04-02T05:02:15.275Z,33205.9297
2023-04-02T05:03:23.266Z,33195.2148
2023-04-02T05:04:31.425Z,33204.5000
2023-04-02T05:05:39.588Z,33199.7852
2023-04-02T05:06:47.652Z,33200.7852
2023-04-02T05:07:57.006Z,33198.5000
2023-04-02T05:09:08.633Z,33231.3984
2023-04-02T05:10:16.676Z,33242.3555
2023-04-02T05:11:24.772Z,33227.0000
2023-04-02T05:12:32.794Z,33220.0000
2023-04-02T05:13:40.826Z,33239.2852
2023-04-02T05:14:48.777Z,33247.7852
2023-04-02T05:15:56.959Z,33298.5703
2023-04-02T05:17:04.922Z,33297.2852
2023-04-02T05:18:13.068Z,33311.1445
2023-04-02T05:19:21.133Z,33320.8555
2023-04-02T05:20:29.229Z,33337.8555
2023-04-02T05:21:37.263Z,33383.7148
2023-04-02T05:22:45.444Z,33406.7148
2023-04-02T05:23:53.432Z,33435.7852
2023-04-02T05:25:01.513Z,33446.7852
2023-04-02T05:26:09.523Z,33464.8555
2023-04-02T05:27:17.652Z,33438.7148
2023-04-02T05:28:25.701Z,33434.2148
2023-04-02T05:29:33.686Z,33440.2852
2023-04-02T05:30:41.712Z,33450.9297
2023-04-02T05:31:49.814Z,33457.8555
2023-04-02T05:32:57.859Z,33472.4297
2023-04-02T05:34:06.075Z,33460.0703
2023-04-02T05:35:14.107Z,33447.0000
2023-04-02T05:36:22.161Z,33473.3555
2023-04-02T05:37:30.174Z,33471.3555
2023-04-02T05:38:38.261Z,33476.5703
2023-04-02T05:39:46.352Z,33477.0000
2023-04-02T05:40:54.436Z,33477.0000
2023-04-02T05:42:02.505Z,33477.0000
2023-04-02T05:43:10.553Z,33477.0000
2023-04-02T05:44:18.519Z,33477.0000
2023-04-02T05:45:26.613Z,33477.0000
2023-04-02T05:46:34.725Z,33477.0000
2023-04-02T05:47:42.742Z,33477.0000
2023-04-02T05:48:50.916Z,33477.0000
2023-04-02T05:49:58.937Z,33477.0000
2023-04-02T05:51:07.040Z,33477.0000
2023-04-02T05:52:15.116Z,33477.0000
2023-04-02T05:53:23.117Z,33477.0000
2023-04-02T05:54:31.201Z,33477.0000
2023-04-02T05:55:39.232Z,33477.0000
2023-04-02T05:56:47.419Z,33477.0000
2023-04-02T05:58:10.446Z,33477.0000
2023-04-02T05:59:08.214Z,33477.0000
2023-04-02T06:00:16.265Z,33477.0000
2023-04-02T06:01:24.357Z,33477.0000
2023-04-02T06:02:32.543Z,33477.0000
2023-04-02T06:03:40.725Z,33477.0000
2023-04-02T06:04:48.659Z,33477.0000
2023-04-02T06:05:56.725Z,33477.0000
2023-04-02T06:07:04.815Z,33477.0000
2023-04-02T06:08:12.908Z,33477.0000
2023-04-02T06:09:20.970Z,33477.0000
2023-04-02T06:10:29.058Z,33477.0000
2023-04-02T06:11:37.042Z,33477.0000
2023-04-02T06:12:45.159Z,33477.0000
2023-04-02T06:13:53.115Z,33477.0000
2023-04-02T06:15:01.240Z,33477.0000
2023-04-02T06:16:09.236Z,33477.0000
2023-04-02T06:17:17.310Z,33477.0000
2023-04-02T06:18:25.405Z,33477.0000
2023-04-02T06:19:33.543Z,33477.0000
2023-04-02T06:20:41.594Z,33477.0000
2023-04-02T06:21:49.594Z,33477.0000
2023-04-02T06:22:57.754Z,33477.0000
2023-04-02T06:24:05.761Z,33477.0000
2023-04-02T06:25:13.874Z,33477.0000
2023-04-02T06:26:21.953Z,33477.0000
2023-04-02T06:27:29.979Z,33477.0000
2023-04-02T06:28:37.930Z,33477.0000
2023-04-02T06:29:46.002Z,33477.0000
2023-04-02T06:30:54.098Z,33477.0000
2023-04-02T06:32:02.182Z,33477.0000
2023-04-02T06:33:10.239Z,33477.0000
2023-04-02T06:34:18.332Z,33477.0000
2023-04-02T06:35:26.433Z,33477.0000
2023-04-02T06:36:34.596Z,33477.0000
2023-04-02T06:37:42.564Z,33477.0000
2023-04-02T06:38:50.563Z,33477.0000
2023-04-02T06:39:58.657Z,33477.0000
2023-04-02T06:41:06.718Z,33477.0000
2023-04-02T06:42:14.849Z,33477.0000
2023-04-02T06:43:22.841Z,33477.0000
2023-04-02T06:44:30.825Z,33477.0000
2023-04-02T06:45:38.869Z,33477.0000
2023-04-02T06:46:46.967Z,33477.0000
2023-04-02T06:47:55.163Z,33477.0000
2023-04-02T06:49:03.212Z,33477.0000
2023-04-02T06:50:11.256Z,33477.0000
2023-04-02T06:51:19.413Z,33477.0000
2023-04-02T06:52:27.447Z,33477.0000
2023-04-02T06:53:35.501Z,33477.0000
2023-04-02T06:54:43.659Z,33477.0000
2023-04-02T06:55:51.514Z,33477.0000
2023-04-02T06:56:59.644Z,33477.0000
2023-04-02T06:58:07.559Z,33477.0000
2023-04-02T06:59:15.697Z,33477.0000
2023-04-02T07:00:23.757Z,33477.0000
2023-04-02T07:01:31.852Z,33477.0000
2023-04-02T07:02:39.923Z,33477.0000
2023-04-02T07:03:47.929Z,33477.0000
2023-04-02T07:04:56.173Z,33477.0000
2023-04-02T07:06:04.247Z,33477.0000
2023-04-02T07:07:12.192Z,33477.0000
2023-04-02T07:08:20.281Z,33477.0000
2023-04-02T07:09:28.371Z,33477.0000
2023-04-02T07:10:36.443Z,33477.0000
2023-04-02T07:11:44.539Z,33477.0000
2023-04-02T07:12:52.553Z,33477.0000
2023-04-02T07:14:00.660Z,33477.0000
2023-04-02T07:15:08.577Z,33477.0000
2023-04-02T07:16:16.777Z,33477.0000
2023-04-02T07:17:24.775Z,33477.0000
2023-04-02T07:18:32.809Z,33477.0000
2023-04-02T07:19:40.937Z,33477.0000
2023-04-02T07:20:49.007Z,33477.0000
2023-04-02T07:21:57.069Z,33477.0000
2023-04-02T07:23:05.227Z,33477.0000
2023-04-02T07:24:13.276Z,33477.0000
2023-04-02T07:25:21.436Z,33477.0000
2023-04-02T07:26:29.367Z,33477.0000
2023-04-02T07:27:37.522Z,33477.0000
2023-04-02T07:28:45.521Z,33477.0000
2023-04-02T07:29:53.489Z,33477.0000
2023-04-02T07:31:01.496Z,33477.0000
2023-04-02T07:32:09.613Z,33477.0000
2023-04-02T07:33:17.671Z,33477.0000
2023-04-02T07:34:25.815Z,33477.0000
2023-04-02T07:35:34.307Z,33477.0000
2023-04-02T07:36:41.990Z,33477.0000
2023-04-02T07:37:50.057Z,33477.0000
2023-04-02T07:38:58.157Z,33477.0000
2023-04-02T07:40:06.203Z,33477.0000
2023-04-02T07:41:14.273Z,33477.0000
2023-04-02T07:42:22.313Z,33477.0000
2023-04-02T07:43:30.503Z,33477.0000
2023-04-02T07:44:38.519Z,33477.0000
2023-04-02T07:45:46.600Z,33477.0000
2023-04-02T07:46:54.510Z,33477.0000
2023-04-02T07:48:02.602Z,33477.0000
2023-04-02T07:49:10.600Z,33477.0000
2023-04-02T07:50:18.752Z,33477.0000
2023-04-02T07:51:26.858Z,33477.0000
2023-04-02T07:52:34.924Z,33477.0000
2023-04-02T07:53:42.958Z,33477.0000
2023-04-02T07:54:51.115Z,33477.0000
2023-04-02T07:55:59.151Z,33477.0000
2023-04-02T07:57:07.301Z,33477.0000
2023-04-02T07:58:15.220Z,33477.0000
2023-04-02T07:59:23.313Z,33477.0000
2023-04-02T08:00:31.385Z,33477.0000
2023-04-02T08:01:39.406Z,33477.0000
2023-04-02T08:02:47.450Z,33477.0000
2023-04-02T08:03:55.522Z,33477.0000
2023-04-02T08:05:03.531Z,33477.0000
2023-04-02T08:06:11.720Z,33477.0000
2023-04-02T08:07:19.796Z,33477.0000
2023-04-02T08:08:27.926Z,33477.0000
2023-04-02T08:09:35.908Z,33477.0000
2023-04-02T08:10:43.956Z,33477.0000
2023-04-02T08:11:52.040Z,33477.0000
2023-04-02T08:13:00.237Z,33477.0000
2023-04-02T08:14:08.173Z,33477.0000
2023-04-02T08:15:16.222Z,33477.0000
2023-04-02T08:16:24.264Z,33477.0000
2023-04-02T08:17:32.355Z,33477.0000
2023-04-02T08:18:40.373Z,33477.0000
2023-04-02T08:19:54.786Z,33477.0000
2023-04-02T08:21:01.387Z,33477.0000
2023-04-02T08:22:09.477Z,33477.0000
2023-04-02T08:23:17.554Z,33477.0000
2023-04-02T08:24:25.645Z,33477.0000
2023-04-02T08:25:33.920Z,33477.0000
2023-04-02T08:26:43.033Z,33477.0000
2023-04-02T08:27:54.649Z,33477.0000
2023-04-02T08:29:02.763Z,33477.0000
2023-04-02T08:30:10.695Z,33477.0000
2023-04-02T08:31:18.877Z,33477.0000
2023-04-02T08:32:26.851Z,33477.0000
2023-04-02T08:33:35.038Z,33477.0000
2023-04-02T08:34:43.106Z,33477.0000
2023-04-02T08:35:51.236Z,33477.0000
2023-04-02T08:36:59.283Z,33477.0000
2023-04-02T08:38:07.239Z,33477.0000
2023-04-02T08:39:15.304Z,33477.0000
2023-04-02T08:40:23.402Z,33477.0000
2023-04-02T08:41:31.481Z,33477.0000
2023-04-02T08:42:39.510Z,33477.0000
2023-04-02T08:43:47.493Z,33477.0000
2023-04-02T08:44:55.500Z,33477.0000
2023-04-02T08:46:03.582Z,33477.0000
2023-04-02T08:47:11.666Z,33477.0000
2023-04-02T08:48:19.748Z,33477.0000
2023-04-02T08:49:27.793Z,33477.0000
2023-04-02T08:50:35.857Z,33477.0000
2023-04-02T08:51:44.008Z,33477.0000
2023-04-02T08:52:52.079Z,33477.0000
2023-04-02T08:54:00.163Z,33477.0000
2023-04-02T08:55:08.279Z,33477.0000
2023-04-02T08:56:16.218Z,33477.0000
2023-04-02T08:57:24.347Z,33477.0000
2023-04-02T08:58:32.360Z,33477.0000
2023-04-02T08:59:40.529Z,33477.0000
2023-04-02T09:00:48.593Z,33477.0000
2023-04-02T09:01:56.508Z,33477.0000
2023-04-02T09:03:04.542Z,33477.0000
2023-04-02T09:04:12.688Z,33477.0000
2023-04-02T09:05:20.681Z,33477.0000
2023-04-02T09:06:28.876Z,33477.0000
2023-04-02T09:07:36.836Z,33477.0000
2023-04-02T09:08:44.944Z,33477.0000
2023-04-02T09:09:52.970Z,33477.0000
2023-04-02T09:11:01.097Z,33477.0000
2023-04-02T09:12:09.198Z,33477.0000
2023-04-02T09:13:17.177Z,33477.0000
2023-04-02T09:14:25.252Z,33477.0000
2023-04-02T09:15:33.584Z,33477.0000
2023-04-02T09:16:41.288Z,33477.0000
2023-04-02T09:17:54.025Z,33477.0000
2023-04-02T09:19:02.237Z,33477.0000
2023-04-02T09:20:10.474Z,33477.0000
2023-04-02T09:21:18.474Z,33477.0000
2023-04-02T09:22:26.595Z,33477.0000
2023-04-02T09:23:34.679Z,33477.0000
2023-04-02T09:24:42.688Z,33477.0000
2023-04-02T09:26:03.025Z,33477.0000
2023-04-02T09:27:03.690Z,33477.0000
2023-04-02T09:28:11.800Z,33477.0000
2023-04-02T09:29:19.701Z,33477.0000
2023-04-02T09:30:27.744Z,33477.0000
2023-04-02T09:31:35.861Z,33477.0000
2023-04-02T09:32:43.894Z,33477.0000
2023-04-02T09:33:52.087Z,33477.0000
2023-04-02T09:35:00.161Z,33477.0000
2023-04-02T09:36:08.225Z,33477.0000
2023-04-02T09:37:16.204Z,33477.0000
2023-04-02T09:38:24.358Z,33477.0000
2023-04-02T09:39:32.444Z,33477.0000
2023-04-02T09:40:40.480Z,33477.0000
2023-04-02T09:42:02.405Z,33477.0000
2023-04-02T09:43:01.361Z,33477.0000
2023-04-02T09:44:09.417Z,33477.0000
2023-04-02T09:45:17.505Z,33477.0000
2023-04-02T09:46:25.547Z,33477.0000
2023-04-02T09:47:33.766Z,33477.0000
2023-04-02T09:48:41.725Z,33477.0000
2023-04-02T09:49:49.806Z,33477.0000
2023-04-02T09:50:57.943Z,33477.0000
2023-04-02T09:52:05.969Z,33477.0000
2023-04-02T09:53:14.019Z,33477.0000
2023-04-02T09:54:22.106Z,33477.0000
2023-04-02T09:55:30.100Z,33477.0000
2023-04-02T09:56:38.249Z,33477.0000
2023-04-02T09:57:46.138Z,33477.0000
2023-04-02T09:58:54.217Z,33477.0000
2023-04-02T10:00:02.278Z,33477.0000
2023-04-02T10:01:10.373Z,33477.0000
2023-04-02T10:02:18.530Z,33477.0000
2023-04-02T10:03:26.654Z,33477.0000
2023-04-02T10:04:34.613Z,33477.0000
2023-04-02T10:05:43.085Z,33477.0000
2023-04-02T10:06:50.714Z,33477.0000
2023-04-02T10:07:58.840Z,33477.0000
2023-04-02T10:09:06.977Z,33477.0000
2023-04-02T10:10:14.914Z,33477.0000
2023-04-02T10:11:23.448Z,33477.0000
2023-04-02T10:12:35.874Z,33477.0000
2023-04-02T10:13:43.901Z,33477.0000
2023-04-02T10:14:52.006Z,33477.0000
2023-04-02T10:16:00.053Z,33477.0000
2023-04-02T10:17:08.265Z,33477.0000
2023-04-02T10:18:16.231Z,33477.0000
2023-04-02T10:19:24.381Z,33477.0000
2023-04-02T10:20:36.345Z,33477.0000
2023-04-02T10:21:45.318Z,33477.0000
2023-04-02T10:22:53.329Z,33477.0000
2023-04-02T10:24:01.390Z,33477.0000
2023-04-02T10:25:09.484Z,33477.0000
2023-04-02T10:26:17.495Z,33477.0000
2023-04-02T10:27:25.490Z,33477.0000
2023-04-02T10:28:33.569Z,33477.0000
2023-04-02T10:29:41.648Z,33477.0000
2023-04-02T10:30:49.850Z,33477.0000
2023-04-02T10:31:57.927Z,33477.0000
2023-04-02T10:33:06.010Z,33477.0000
2023-04-02T10:34:13.962Z,33477.0000
2023-04-02T10:35:22.063Z,33477.0000
2023-04-02T10:36:30.118Z,33477.0000
2023-04-02T10:37:38.206Z,33477.0000
2023-04-02T10:38:46.178Z,33477.0000
2023-04-02T10:39:54.293Z,33477.0000
2023-04-02T10:41:02.314Z,33477.0000
2023-04-02T10:42:10.481Z,33477.0000
2023-04-02T10:43:18.517Z,33477.0000
2023-04-02T10:44:26.520Z,33477.0000
2023-04-02T10:45:34.752Z,33477.0000
2023-04-02T10:46:42.682Z,33477.0000
2023-04-02T10:47:50.803Z,33477.0000
2023-04-02T10:48:58.828Z,33477.0000
2023-04-02T10:50:06.846Z,33477.0000
2023-04-02T10:51:14.829Z,33477.0000
2023-04-02T10:52:22.856Z,33477.0000
2023-04-02T10:53:30.987Z,33477.0000
2023-04-02T10:54:39.046Z,33477.0000
2023-04-02T10:55:47.199Z,33477.0000
2023-04-02T10:56:55.244Z,33477.0000
2023-04-02T10:58:03.324Z,33477.0000
2023-04-02T10:59:11.402Z,33477.0000
2023-04-02T11:00:19.509Z,33477.0000
2023-04-02T11:01:27.565Z,33477.0000
2023-04-02T11:02:35.621Z,33477.0000
2023-04-02T11:03:43.791Z,33477.0000
2023-04-02T11:04:51.649Z,33477.0000
2023-04-02T11:05:59.678Z,33477.0000
2023-04-02T11:07:14.418Z,33477.0000
2023-04-02T11:08:20.710Z,33477.0000
2023-04-02T11:09:28.806Z,33477.0000
2023-04-02T11:10:36.918Z,33477.0000
2023-04-02T11:11:45.071Z,33477.0000
2023-04-02T11:12:53.004Z,33477.0000
2023-04-02T11:14:01.076Z,33477.0000
2023-04-02T11:15:09.155Z,33477.0000
2023-04-02T11:16:17.305Z,33477.0000
2023-04-02T11:17:25.333Z,33477.0000
2023-04-02T11:18:33.275Z,33477.0000
2023-04-02T11:19:41.308Z,33477.0000
2023-04-02T11:20:49.346Z,33477.0000
2023-04-02T11:21:59.354Z,33477.0000
2023-04-02T11:23:10.560Z,33477.0000
2023-04-02T11:24:18.478Z,33477.0000
2023-04-02T11:25:26.609Z,33477.0000
2023-04-02T11:26:34.596Z,33477.0000
2023-04-02T11:27:42.737Z,33477.0000
2023-04-02T11:28:50.813Z,33477.0000
2023-04-02T11:29:58.874Z,33477.0000
2023-04-02T11:31:06.898Z,33477.0000
2023-04-02T11:32:14.866Z,33477.0000
2023-04-02T11:33:34.138Z,33477.0000
2023-04-02T11:34:35.894Z,33477.0000
2023-04-02T11:35:44.029Z,33477.0000
2023-04-02T11:36:52.122Z,33477.0000
2023-04-02T11:38:00.171Z,33477.0000
2023-04-02T11:39:17.079Z,33477.0000
2023-04-02T11:40:21.161Z,33477.0000
2023-04-02T11:41:29.232Z,33477.0000
2023-04-02T11:42:37.290Z,33477.0000
2023-04-02T11:43:45.329Z,33477.0000
2023-04-02T11:44:53.304Z,33477.0000
2023-04-02T11:46:01.476Z,33477.0000
2023-04-02T11:47:09.490Z,33477.0000
2023-04-02T11:48:17.566Z,33477.0000
2023-04-02T11:49:25.693Z,33477.0000
2023-04-02T11:50:33.856Z,33477.0000
2023-04-02T11:51:41.862Z,33477.0000
2023-04-02T11:52:49.921Z,33477.0000
2023-04-02T11:53:58.001Z,33477.0000
2023-04-02T11:55:06.047Z,33477.0000
2023-04-02T11:56:14.220Z,33477.0000
2023-04-02T11:57:22.276Z,33477.0000
2023-04-02T11:58:30.242Z,33477.0000
2023-04-02T11:59:38.183Z,33477.0000
2023-04-02T12:00:46.300Z,33477.0000
2023-04-02T12:01:54.343Z,33477.0000
2023-04-02T12:03:02.447Z,33477.0000
2023-04-02T12:04:10.604Z,33477.0000
2023-04-02T12:05:18.669Z,33477.0000
2023-04-02T12:06:26.653Z,33477.0000
2023-04-02T12:07:34.886Z,33477.0000
2023-04-02T12:08:56.677Z,33477.0000
2023-04-02T12:09:55.745Z,33477.0000
2023-04-02T12:11:03.842Z,33477.0000
2023-04-02T12:12:11.881Z,33477.0000
2023-04-02T12:13:19.937Z,33477.0000
2023-04-02T12:14:27.926Z,33477.0000
2023-04-02T12:15:36.103Z,33477.0000
2023-04-02T12:16:44.153Z,33477.0000
2023-04-02T12:17:52.231Z,33477.0000
2023-04-02T12:19:00.362Z,33477.0000
2023-04-02T12:20:08.404Z,33477.0000
2023-04-02T12:21:16.393Z,33477.0000
2023-04-02T12:22:24.491Z,33477.0000
2023-04-02T12:23:32.524Z,33477.0000
2023-04-02T12:24:40.657Z,33477.0000
2023-04-02T12:25:48.734Z,33477.0000
2023-04-02T12:26:56.771Z,33477.0000
2023-04-02T12:28:04.719Z,33477.0000
2023-04-02T12:29:12.798Z,33477.0000
2023-04-02T12:30:20.866Z,33477.0000
2023-04-02T12:31:29.016Z,33477.0000
2023-04-02T12:32:37.122Z,33477.0000
2023-04-02T12:33:45.100Z,33477.0000
2023-04-02T12:34:53.161Z,33477.0000
2023-04-02T12:36:01.377Z,33477.0000